Terminal Aerodrome Forecast
Issued by NWS

Home | Current Version | Previous Version | Text Only | Print | Product List | Glossary On
Versions: 1 2 3 4 5 6 7 8 9 10 11 12 13 14 15 16 17 18 19 20 21 22 23 24 25
008
FTUS42 KFFC 161140
TAFPDK
TAF
KPDK 161140Z 1612/1712 00000KT 6SM BR BKN070 BKN250
     FM161400 10004KT P6SM BKN070 BKN150
     FM162100 12006KT P6SM BKN070 BKN150
     FM170600 13005KT P6SM BKN030 BKN150=

USA.gov is the U.S. government's official web portal to all federal, state and local government web resources and services.